Aeroporto :
LOGIN :

Iscrizione | Disclaimer

   EN    FR    IT 

 










Sommario :    VFR   VFR Marginale   IFR   IFR Intensivo   IFR Molto Intensivo
Visibilità : 
Base nubi : 
>= 8 km
>= 3000ft
5 / 8 km
1000 / 3000 ft
1500m / 5 km
500 / 1000 ft
800 / 1500m
200 / 500 ft
< 800m
< 200 ft
Simboli :   Temporali  Nebbia  Neve Forte  Precipitazioni Forti  Vento > 20 kt
SIGMETs :   Varie  Temporali  Ghiacco  Turbolenza  Onda orograficha  Ceneri Vulcaniche






- Altitudine del aeroporto : 33 ft
- Codice IATA : MHZ


EGUN - RAF Mildenhall

METARs OBSOLETI :
  • 211355Z 26005KT 6000 -RA BR OVC027 17/14 A2978 RMK AO2A LTG DSNT E RAB05 SLP088 P0006 T01690142 $
  • 211328Z 29004KT 5000 RA BR BKN027 OVC200 18/14 A2977 RMK AO2A LTG DSNT E SLP084 $
  • 211307Z 34004KT 9999 -RA BKN022 OVC120 18/14 A2977 RMK AO2A LTG DSNT E RAB05 SLP084 $
  • 211255Z 35004KT 9999 BKN022 OVC120 18/13 A2977 RMK AO2A LTG DSNT SE SLP084 T01820128 $
  • 211155Z 03003KT 9999 SCT020 OVC080 18/14 A2979 RMK AO2A SLP091 T01790136 10179 20128 57006 $
  • 211125Z 33004KT 9999 BKN018 OVC050 17/13 A2980 RMK AO2A SLP094 $
  • 211105Z 03005KT 9999 BKN015 16/13 A2980 RMK AO2A SLP094 $

TAF TAF EGUN
Valido dal 21 a 12 ore il 22 a 18 ore UTC


211200Z 2112/2218 05004KT 9999 VCSH SCT020 OVC070 610759 QNH2978INS
BECMG 2112/2114 VRB04KT 8000 -SHRA BKN014 OVC070 610809 QNH2975INS
TEMPO 2114/2117 12010G15KT 5000 SHRA TSGS OVC012CB
BECMG 2117/2118 32006KT 6000 -SHRA BR OVC008 610759 QNH2975INS
BECMG 2120/2121 35007KT 8000 -SHRA BR OVC006 610759 QNH2964INS
BECMG 2209/2211 26010KT 8000 -SHRA BR BKN007 QNH2960INS
BECMG 2212/2214 26012G22KT 9999 NSW BKN020 QNH2960INS
TEMPO 2214/2218 9000 -SHRA BKN015
BECMG 2217/2218 22012G22KT 9999 BKN015 QNH2963INS TX20/2115Z TN12/2200Z



MetMap, La meteo Aeronautica in un colpo d'occhio ! - Copyright ORBIFLY Dicembre 2007 - Disclaimer

ORBIFLY MET'MAP TEAM :

Programmazione e sviluppo : Alexandra Zaïnal
Concezione : Baudouin d'Aumeries
Supporto tecnico e logistico : Manuel Goepfert
Aiuto : Marc-Olivier Méhu
Aiuto per la traduzione : Arnaldo La Scala




FONTI E CREDITI :

   NOAA